sensor_id;sensor_type;location;lat;lon;timestamp;temperature;humidity
68439;SHT31;55421;51.600;5.718;2023-07-13T00:00:47;18.21;61.94
68439;SHT31;55421;51.600;5.718;2023-07-13T00:03:34;18.17;62.09
68439;SHT31;55421;51.600;5.718;2023-07-13T00:06:01;18.13;62.10
68439;SHT31;55421;51.600;5.718;2023-07-13T00:08:30;18.07;62.18
68439;SHT31;55421;51.600;5.718;2023-07-13T00:10:59;18.03;62.31
68439;SHT31;55421;51.600;5.718;2023-07-13T00:13:29;17.99;62.39
68439;SHT31;55421;51.600;5.718;2023-07-13T00:15:57;17.96;62.52
68439;SHT31;55421;51.600;5.718;2023-07-13T00:18:25;17.93;62.58
68439;SHT31;55421;51.600;5.718;2023-07-13T00:20:51;17.93;62.70
68439;SHT31;55421;51.600;5.718;2023-07-13T00:23:18;17.92;62.78
68439;SHT31;55421;51.600;5.718;2023-07-13T00:25:45;17.90;62.81
68439;SHT31;55421;51.600;5.718;2023-07-13T00:28:11;17.91;62.87
68439;SHT31;55421;51.600;5.718;2023-07-13T00:30:37;17.92;62.93
68439;SHT31;55421;51.600;5.718;2023-07-13T00:33:04;17.90;63.04
68439;SHT31;55421;51.600;5.718;2023-07-13T00:35:30;17.91;63.10
68439;SHT31;55421;51.600;5.718;2023-07-13T00:37:58;17.92;63.14
68439;SHT31;55421;51.600;5.718;2023-07-13T00:40:24;17.92;63.21
68439;SHT31;55421;51.600;5.718;2023-07-13T00:42:52;17.91;63.32
68439;SHT31;55421;51.600;5.718;2023-07-13T00:47:46;17.84;63.55
68439;SHT31;55421;51.600;5.718;2023-07-13T00:50:13;17.82;63.60
68439;SHT31;55421;51.600;5.718;2023-07-13T00:52:44;17.79;63.68
68439;SHT31;55421;51.600;5.718;2023-07-13T00:55:16;17.76;63.88
68439;SHT31;55421;51.600;5.718;2023-07-13T00:57:44;17.74;64.07
68439;SHT31;55421;51.600;5.718;2023-07-13T01:00:11;17.71;64.16
68439;SHT31;55421;51.600;5.718;2023-07-13T01:02:39;17.69;64.28
68439;SHT31;55421;51.600;5.718;2023-07-13T01:05:11;17.72;64.34
68439;SHT31;55421;51.600;5.718;2023-07-13T01:07:49;17.74;64.25
68439;SHT31;55421;51.600;5.718;2023-07-13T01:10:21;17.75;64.27
68439;SHT31;55421;51.600;5.718;2023-07-13T01:12:49;17.76;64.27
68439;SHT31;55421;51.600;5.718;2023-07-13T01:18:19;17.74;64.40
68439;SHT31;55421;51.600;5.718;2023-07-13T01:20:51;17.72;64.45
68439;SHT31;55421;51.600;5.718;2023-07-13T01:23:28;17.68;64.53
68439;SHT31;55421;51.600;5.718;2023-07-13T01:25:56;17.66;64.68
68439;SHT31;55421;51.600;5.718;2023-07-13T01:28:24;17.62;64.73
68439;SHT31;55421;51.600;5.718;2023-07-13T01:30:54;17.59;64.88
68439;SHT31;55421;51.600;5.718;2023-07-13T01:33:23;17.55;65.01
68439;SHT31;55421;51.600;5.718;2023-07-13T01:35:51;17.50;65.09
68439;SHT31;55421;51.600;5.718;2023-07-13T01:38:19;17.48;65.15
68439;SHT31;55421;51.600;5.718;2023-07-13T01:40:49;17.46;65.22
68439;SHT31;55421;51.600;5.718;2023-07-13T01:43:17;17.46;65.31
68439;SHT31;55421;51.600;5.718;2023-07-13T01:45:45;17.46;65.37
68439;SHT31;55421;51.600;5.718;2023-07-13T01:48:12;17.49;65.31
68439;SHT31;55421;51.600;5.718;2023-07-13T01:50:40;17.49;65.36
68439;SHT31;55421;51.600;5.718;2023-07-13T01:53:06;17.51;65.39
68439;SHT31;55421;51.600;5.718;2023-07-13T01:55:33;17.51;65.40
68439;SHT31;55421;51.600;5.718;2023-07-13T01:58:01;17.50;65.44
68439;SHT31;55421;51.600;5.718;2023-07-13T02:00:28;17.47;65.52
68439;SHT31;55421;51.600;5.718;2023-07-13T02:02:55;17.46;65.64
68439;SHT31;55421;51.600;5.718;2023-07-13T02:05:22;17.43;65.70
68439;SHT31;55421;51.600;5.718;2023-07-13T02:07:49;17.37;65.81
68439;SHT31;55421;51.600;5.718;2023-07-13T02:10:16;17.33;65.96
68439;SHT31;55421;51.600;5.718;2023-07-13T02:12:42;17.29;66.16
68439;SHT31;55421;51.600;5.718;2023-07-13T02:15:10;17.26;66.28
68439;SHT31;55421;51.600;5.718;2023-07-13T02:17:36;17.27;66.38
68439;SHT31;55421;51.600;5.718;2023-07-13T02:20:04;17.28;66.48
68439;SHT31;55421;51.600;5.718;2023-07-13T02:22:31;17.27;66.50
68439;SHT31;55421;51.600;5.718;2023-07-13T02:24:58;17.28;66.58
68439;SHT31;55421;51.600;5.718;2023-07-13T02:27:25;17.29;66.58
68439;SHT31;55421;51.600;5.718;2023-07-13T02:29:52;17.26;66.60
68439;SHT31;55421;51.600;5.718;2023-07-13T02:32:19;17.22;66.75
68439;SHT31;55421;51.600;5.718;2023-07-13T02:34:45;17.17;66.91
68439;SHT31;55421;51.600;5.718;2023-07-13T02:37:12;17.15;66.95
68439;SHT31;55421;51.600;5.718;2023-07-13T02:39:38;17.12;67.01
68439;SHT31;55421;51.600;5.718;2023-07-13T02:42:05;17.09;67.16
68439;SHT31;55421;51.600;5.718;2023-07-13T02:44:32;17.03;67.31
68439;SHT31;55421;51.600;5.718;2023-07-13T02:46:59;17.01;67.51
68439;SHT31;55421;51.600;5.718;2023-07-13T02:49:25;17.00;67.60
68439;SHT31;55421;51.600;5.718;2023-07-13T02:51:52;17.00;67.72
68439;SHT31;55421;51.600;5.718;2023-07-13T02:54:18;17.00;67.86
68439;SHT31;55421;51.600;5.718;2023-07-13T02:56:45;17.01;67.90
68439;SHT31;55421;51.600;5.718;2023-07-13T02:59:11;17.00;67.93
68439;SHT31;55421;51.600;5.718;2023-07-13T03:01:38;16.98;68.00
68439;SHT31;55421;51.600;5.718;2023-07-13T03:04:05;16.95;68.13
68439;SHT31;55421;51.600;5.718;2023-07-13T03:06:32;16.90;68.23
68439;SHT31;55421;51.600;5.718;2023-07-13T03:09:00;16.88;68.33
68439;SHT31;55421;51.600;5.718;2023-07-13T03:11:27;16.86;68.40
68439;SHT31;55421;51.600;5.718;2023-07-13T03:13:53;16.86;68.51
68439;SHT31;55421;51.600;5.718;2023-07-13T03:16:20;16.89;68.56
68439;SHT31;55421;51.600;5.718;2023-07-13T03:18:47;16.90;68.59
68439;SHT31;55421;51.600;5.718;2023-07-13T03:21:14;16.90;68.63
68439;SHT31;55421;51.600;5.718;2023-07-13T03:23:41;16.89;68.70
68439;SHT31;55421;51.600;5.718;2023-07-13T03:26:13;16.87;68.77
68439;SHT31;55421;51.600;5.718;2023-07-13T03:28:44;16.84;68.87
68439;SHT31;55421;51.600;5.718;2023-07-13T03:31:14;16.80;68.92
68439;SHT31;55421;51.600;5.718;2023-07-13T03:33:45;16.75;69.13
68439;SHT31;55421;51.600;5.718;2023-07-13T03:36:14;16.76;69.24
68439;SHT31;55421;51.600;5.718;2023-07-13T03:38:55;16.79;69.29
68439;SHT31;55421;51.600;5.718;2023-07-13T03:41:25;16.81;69.38
68439;SHT31;55421;51.600;5.718;2023-07-13T03:43:52;16.82;69.40
68439;SHT31;55421;51.600;5.718;2023-07-13T03:46:19;16.81;69.42
68439;SHT31;55421;51.600;5.718;2023-07-13T03:48:46;16.82;69.50
68439;SHT31;55421;51.600;5.718;2023-07-13T03:51:14;16.82;69.50
68439;SHT31;55421;51.600;5.718;2023-07-13T03:53:43;16.81;69.56
68439;SHT31;55421;51.600;5.718;2023-07-13T03:56:11;16.77;69.72
68439;SHT31;55421;51.600;5.718;2023-07-13T03:58:41;16.75;69.89
68439;SHT31;55421;51.600;5.718;2023-07-13T04:01:11;16.77;69.94
68439;SHT31;55421;51.600;5.718;2023-07-13T04:03:39;16.81;70.00
68439;SHT31;55421;51.600;5.718;2023-07-13T04:06:07;16.84;70.06
68439;SHT31;55421;51.600;5.718;2023-07-13T04:08:41;16.87;70.10
68439;SHT31;55421;51.600;5.718;2023-07-13T04:11:08;16.90;70.17
68439;SHT31;55421;51.600;5.718;2023-07-13T04:13:35;16.94;70.20
68439;SHT31;55421;51.600;5.718;2023-07-13T04:16:01;16.94;70.20
68439;SHT31;55421;51.600;5.718;2023-07-13T04:18:28;16.95;70.25
68439;SHT31;55421;51.600;5.718;2023-07-13T04:20:54;16.98;70.24
68439;SHT31;55421;51.600;5.718;2023-07-13T04:23:21;17.01;70.27
68439;SHT31;55421;51.600;5.718;2023-07-13T04:25:48;17.03;70.30
68439;SHT31;55421;51.600;5.718;2023-07-13T04:28:22;17.06;70.34
68439;SHT31;55421;51.600;5.718;2023-07-13T04:30:51;17.08;70.40
68439;SHT31;55421;51.600;5.718;2023-07-13T04:33:17;17.10;70.43
68439;SHT31;55421;51.600;5.718;2023-07-13T04:35:52;17.10;70.50
68439;SHT31;55421;51.600;5.718;2023-07-13T04:38:29;17.09;70.59
68439;SHT31;55421;51.600;5.718;2023-07-13T04:40:59;17.08;70.70
68439;SHT31;55421;51.600;5.718;2023-07-13T04:43:28;17.05;70.80
68439;SHT31;55421;51.600;5.718;2023-07-13T04:45:56;17.05;70.89
68439;SHT31;55421;51.600;5.718;2023-07-13T04:48:23;17.10;71.03
68439;SHT31;55421;51.600;5.718;2023-07-13T04:50:54;17.15;71.10
68439;SHT31;55421;51.600;5.718;2023-07-13T04:53:22;17.21;71.20
68439;SHT31;55421;51.600;5.718;2023-07-13T04:55:50;17.25;71.22
68439;SHT31;55421;51.600;5.718;2023-07-13T04:58:16;17.24;71.31
68439;SHT31;55421;51.600;5.718;2023-07-13T05:00:43;17.25;71.51
68439;SHT31;55421;51.600;5.718;2023-07-13T05:03:10;17.27;71.60
68439;SHT31;55421;51.600;5.718;2023-07-13T05:05:37;17.30;71.65
68439;SHT31;55421;51.600;5.718;2023-07-13T05:08:03;17.35;71.74
68439;SHT31;55421;51.600;5.718;2023-07-13T05:10:30;17.38;71.79
68439;SHT31;55421;51.600;5.718;2023-07-13T05:12:56;17.45;71.82
68439;SHT31;55421;51.600;5.718;2023-07-13T05:15:23;17.49;71.90
68439;SHT31;55421;51.600;5.718;2023-07-13T05:17:49;17.53;72.00
68439;SHT31;55421;51.600;5.718;2023-07-13T05:20:16;17.58;72.12
68439;SHT31;55421;51.600;5.718;2023-07-13T05:22:45;17.61;72.22
68439;SHT31;55421;51.600;5.718;2023-07-13T05:25:15;17.62;72.27
68439;SHT31;55421;51.600;5.718;2023-07-13T05:27:41;17.65;72.38
68439;SHT31;55421;51.600;5.718;2023-07-13T05:30:08;17.67;72.44
68439;SHT31;55421;51.600;5.718;2023-07-13T05:32:37;17.72;72.44
68439;SHT31;55421;51.600;5.718;2023-07-13T05:35:04;17.80;72.53
68439;SHT31;55421;51.600;5.718;2023-07-13T05:37:31;17.85;72.57
68439;SHT31;55421;51.600;5.718;2023-07-13T05:39:57;17.89;72.55
68439;SHT31;55421;51.600;5.718;2023-07-13T05:42:24;17.90;72.59
68439;SHT31;55421;51.600;5.718;2023-07-13T05:44:50;17.90;72.59
68439;SHT31;55421;51.600;5.718;2023-07-13T05:47:17;17.93;72.64
68439;SHT31;55421;51.600;5.718;2023-07-13T05:49:43;17.94;72.60
68439;SHT31;55421;51.600;5.718;2023-07-13T05:52:10;18.02;72.60
68439;SHT31;55421;51.600;5.718;2023-07-13T05:54:36;18.07;72.60
68439;SHT31;55421;51.600;5.718;2023-07-13T05:57:02;18.10;72.59
68439;SHT31;55421;51.600;5.718;2023-07-13T05:59:29;18.11;72.60
68439;SHT31;55421;51.600;5.718;2023-07-13T06:01:56;18.14;72.53
68439;SHT31;55421;51.600;5.718;2023-07-13T06:04:22;18.17;72.43
68439;SHT31;55421;51.600;5.718;2023-07-13T06:06:49;18.16;72.36
68439;SHT31;55421;51.600;5.718;2023-07-13T06:09:15;18.16;72.34
68439;SHT31;55421;51.600;5.718;2023-07-13T06:11:42;18.19;72.39
68439;SHT31;55421;51.600;5.718;2023-07-13T06:14:08;18.26;72.38
68439;SHT31;55421;51.600;5.718;2023-07-13T06:16:35;18.36;72.39
68439;SHT31;55421;51.600;5.718;2023-07-13T06:19:02;18.46;72.22
68439;SHT31;55421;51.600;5.718;2023-07-13T06:21:28;18.57;72.01
68439;SHT31;55421;51.600;5.718;2023-07-13T06:23:55;18.69;71.93
68439;SHT31;55421;51.600;5.718;2023-07-13T06:26:21;18.77;71.81
68439;SHT31;55421;51.600;5.718;2023-07-13T06:28:48;18.82;71.63
68439;SHT31;55421;51.600;5.718;2023-07-13T06:31:15;18.82;71.37
68439;SHT31;55421;51.600;5.718;2023-07-13T06:33:42;18.80;71.34
68439;SHT31;55421;51.600;5.718;2023-07-13T06:36:09;18.81;71.39
68439;SHT31;55421;51.600;5.718;2023-07-13T06:38:36;18.88;71.41
68439;SHT31;55421;51.600;5.718;2023-07-13T06:41:04;19.00;71.41
68439;SHT31;55421;51.600;5.718;2023-07-13T06:43:33;19.19;71.09
68439;SHT31;55421;51.600;5.718;2023-07-13T06:45:59;19.24;70.69
68439;SHT31;55421;51.600;5.718;2023-07-13T06:48:27;19.24;70.60
68439;SHT31;55421;51.600;5.718;2023-07-13T06:50:54;19.22;70.54
68439;SHT31;55421;51.600;5.718;2023-07-13T06:53:21;19.23;70.57
68439;SHT31;55421;51.600;5.718;2023-07-13T06:55:48;19.27;70.51
68439;SHT31;55421;51.600;5.718;2023-07-13T06:58:15;19.26;70.29
68439;SHT31;55421;51.600;5.718;2023-07-13T07:00:44;19.24;70.38
68439;SHT31;55421;51.600;5.718;2023-07-13T07:03:11;19.24;70.43
68439;SHT31;55421;51.600;5.718;2023-07-13T07:05:38;19.20;70.32
68439;SHT31;55421;51.600;5.718;2023-07-13T07:08:04;19.20;70.49
68439;SHT31;55421;51.600;5.718;2023-07-13T07:10:31;19.23;70.53
68439;SHT31;55421;51.600;5.718;2023-07-13T07:12:58;19.26;70.42
68439;SHT31;55421;51.600;5.718;2023-07-13T07:15:25;19.30;70.38
68439;SHT31;55421;51.600;5.718;2023-07-13T07:17:52;19.31;70.42
68439;SHT31;55421;51.600;5.718;2023-07-13T07:20:19;19.33;70.40
68439;SHT31;55421;51.600;5.718;2023-07-13T07:22:46;19.36;70.25
68439;SHT31;55421;51.600;5.718;2023-07-13T07:25:14;19.39;70.16
68439;SHT31;55421;51.600;5.718;2023-07-13T07:27:41;19.39;70.00
68439;SHT31;55421;51.600;5.718;2023-07-13T07:30:07;19.36;69.99
68439;SHT31;55421;51.600;5.718;2023-07-13T07:32:34;19.30;69.93
68439;SHT31;55421;51.600;5.718;2023-07-13T07:35:01;19.29;70.17
68439;SHT31;55421;51.600;5.718;2023-07-13T07:37:27;19.35;70.14
68439;SHT31;55421;51.600;5.718;2023-07-13T07:39:54;19.42;70.11
68439;SHT31;55421;51.600;5.718;2023-07-13T07:42:20;19.47;70.13
68439;SHT31;55421;51.600;5.718;2023-07-13T07:44:47;19.52;69.99
68439;SHT31;55421;51.600;5.718;2023-07-13T07:47:13;19.63;69.79
68439;SHT31;55421;51.600;5.718;2023-07-13T07:49:41;19.76;69.63
68439;SHT31;55421;51.600;5.718;2023-07-13T07:52:07;19.90;69.38
68439;SHT31;55421;51.600;5.718;2023-07-13T07:54:34;19.99;69.09
68439;SHT31;55421;51.600;5.718;2023-07-13T07:57:00;20.06;68.94
68439;SHT31;55421;51.600;5.718;2023-07-13T07:59:27;20.12;69.00
68439;SHT31;55421;51.600;5.718;2023-07-13T08:01:53;20.23;68.84
68439;SHT31;55421;51.600;5.718;2023-07-13T08:04:20;20.31;68.47
68439;SHT31;55421;51.600;5.718;2023-07-13T08:06:46;20.41;68.29
68439;SHT31;55421;51.600;5.718;2023-07-13T08:09:13;20.55;68.10
68439;SHT31;55421;51.600;5.718;2023-07-13T08:11:39;20.66;67.83
68439;SHT31;55421;51.600;5.718;2023-07-13T08:14:06;20.72;67.72
68439;SHT31;55421;51.600;5.718;2023-07-13T08:16:32;20.83;67.31
68439;SHT31;55421;51.600;5.718;2023-07-13T08:18:59;21.00;67.19
68439;SHT31;55421;51.600;5.718;2023-07-13T08:21:26;21.15;66.94
68439;SHT31;55421;51.600;5.718;2023-07-13T08:23:52;21.30;66.81
68439;SHT31;55421;51.600;5.718;2023-07-13T08:26:19;21.51;66.77
68439;SHT31;55421;51.600;5.718;2023-07-13T08:28:46;21.56;65.46
68439;SHT31;55421;51.600;5.718;2023-07-13T08:31:12;21.44;64.96
68439;SHT31;55421;51.600;5.718;2023-07-13T08:33:41;21.35;65.42
68439;SHT31;55421;51.600;5.718;2023-07-13T08:36:07;21.34;65.45
68439;SHT31;55421;51.600;5.718;2023-07-13T08:38:34;21.31;65.30
68439;SHT31;55421;51.600;5.718;2023-07-13T08:41:01;21.28;65.31
68439;SHT31;55421;51.600;5.718;2023-07-13T08:43:37;21.37;65.13
68439;SHT31;55421;51.600;5.718;2023-07-13T08:46:16;21.53;64.72
68439;SHT31;55421;51.600;5.718;2023-07-13T08:48:51;21.72;64.21
68439;SHT31;55421;51.600;5.718;2023-07-13T08:51:28;21.94;63.25
68439;SHT31;55421;51.600;5.718;2023-07-13T08:54:20;22.09;62.78
68439;SHT31;55421;51.600;5.718;2023-07-13T08:56:57;22.23;62.34
68439;SHT31;55421;51.600;5.718;2023-07-13T08:59:30;22.22;62.21
68439;SHT31;55421;51.600;5.718;2023-07-13T09:10:39;22.04;61.95
68439;SHT31;55421;51.600;5.718;2023-07-13T09:13:20;22.08;61.83
68439;SHT31;55421;51.600;5.718;2023-07-13T09:15:59;21.92;61.12
68439;SHT31;55421;51.600;5.718;2023-07-13T09:18:31;21.71;61.14
68439;SHT31;55421;51.600;5.718;2023-07-13T09:21:13;21.53;61.41
68439;SHT31;55421;51.600;5.718;2023-07-13T09:23:44;21.43;61.81
68439;SHT31;55421;51.600;5.718;2023-07-13T09:28:49;21.87;61.73
68439;SHT31;55421;51.600;5.718;2023-07-13T09:31:24;21.97;61.14
68439;SHT31;55421;51.600;5.718;2023-07-13T09:34:00;21.89;60.37
68439;SHT31;55421;51.600;5.718;2023-07-13T09:36:28;21.76;60.33
68439;SHT31;55421;51.600;5.718;2023-07-13T09:41:41;22.03;60.69
68439;SHT31;55421;51.600;5.718;2023-07-13T09:44:29;22.12;60.53
68439;SHT31;55421;51.600;5.718;2023-07-13T09:48:03;22.41;60.31
68439;SHT31;55421;51.600;5.718;2023-07-13T09:50:10;22.53;60.14
68439;SHT31;55421;51.600;5.718;2023-07-13T09:52:46;22.55;59.63
68439;SHT31;55421;51.600;5.718;2023-07-13T09:57:55;22.51;59.02
68439;SHT31;55421;51.600;5.718;2023-07-13T10:00:23;22.44;58.68
68439;SHT31;55421;51.600;5.718;2023-07-13T10:03:00;22.63;58.32
68439;SHT31;55421;51.600;5.718;2023-07-13T10:05:43;22.84;58.14
68439;SHT31;55421;51.600;5.718;2023-07-13T10:08:16;22.93;58.02
68439;SHT31;55421;51.600;5.718;2023-07-13T10:10:57;23.08;57.61
68439;SHT31;55421;51.600;5.718;2023-07-13T10:13:33;23.25;57.21
68439;SHT31;55421;51.600;5.718;2023-07-13T10:16:04;23.45;56.30
68439;SHT31;55421;51.600;5.718;2023-07-13T10:18:44;23.60;56.09
68439;SHT31;55421;51.600;5.718;2023-07-13T10:21:20;23.78;55.39
68439;SHT31;55421;51.600;5.718;2023-07-13T10:24:00;23.96;55.18
68439;SHT31;55421;51.600;5.718;2023-07-13T10:26:33;24.17;54.94
68439;SHT31;55421;51.600;5.718;2023-07-13T10:29:07;24.34;54.37
68439;SHT31;55421;51.600;5.718;2023-07-13T10:31:39;24.36;53.81
68439;SHT31;55421;51.600;5.718;2023-07-13T10:34:09;24.25;53.27
68439;SHT31;55421;51.600;5.718;2023-07-13T10:36:45;23.96;53.18
68439;SHT31;55421;51.600;5.718;2023-07-13T10:39:22;23.68;53.46
68439;SHT31;55421;51.600;5.718;2023-07-13T10:41:53;23.49;53.97
68439;SHT31;55421;51.600;5.718;2023-07-13T10:44:27;23.41;54.25
68439;SHT31;55421;51.600;5.718;2023-07-13T10:46:59;23.34;54.47
68439;SHT31;55421;51.600;5.718;2023-07-13T10:49:30;23.47;53.94
68439;SHT31;55421;51.600;5.718;2023-07-13T10:51:59;23.55;54.02
68439;SHT31;55421;51.600;5.718;2023-07-13T11:02:48;23.14;55.00
68439;SHT31;55421;51.600;5.718;2023-07-13T11:05:28;23.16;54.83
68439;SHT31;55421;51.600;5.718;2023-07-13T11:08:20;23.14;54.88
68439;SHT31;55421;51.600;5.718;2023-07-13T11:10:59;23.05;54.62
68439;SHT31;55421;51.600;5.718;2023-07-13T11:14:14;22.89;54.06
68439;SHT31;55421;51.600;5.718;2023-07-13T11:19:44;22.87;54.76
68439;SHT31;55421;51.600;5.718;2023-07-13T11:30:21;23.60;56.62
68439;SHT31;55421;51.600;5.718;2023-07-13T11:32:52;23.81;56.31
68439;SHT31;55421;51.600;5.718;2023-07-13T11:35:32;23.95;55.34
68439;SHT31;55421;51.600;5.718;2023-07-13T11:38:09;24.17;54.90
68439;SHT31;55421;51.600;5.718;2023-07-13T11:40:46;24.41;54.46
68439;SHT31;55421;51.600;5.718;2023-07-13T11:43:16;24.61;53.86
68439;SHT31;55421;51.600;5.718;2023-07-13T11:45:43;24.80;53.47
68439;SHT31;55421;51.600;5.718;2023-07-13T11:48:20;24.95;53.16
68439;SHT31;55421;51.600;5.718;2023-07-13T11:51:01;24.92;52.99
68439;SHT31;55421;51.600;5.718;2023-07-13T11:53:37;24.76;52.18
68439;SHT31;55421;51.600;5.718;2023-07-13T11:56:07;24.55;52.14
68439;SHT31;55421;51.600;5.718;2023-07-13T11:58:34;24.47;52.10
68439;SHT31;55421;51.600;5.718;2023-07-13T12:01:01;24.50;52.43
68439;SHT31;55421;51.600;5.718;2023-07-13T12:03:31;24.60;52.64
68439;SHT31;55421;51.600;5.718;2023-07-13T12:06:02;24.60;53.55
68439;SHT31;55421;51.600;5.718;2023-07-13T12:08:37;24.51;54.39
68439;SHT31;55421;51.600;5.718;2023-07-13T12:11:11;24.35;54.64
68439;SHT31;55421;51.600;5.718;2023-07-13T12:13:45;24.10;55.35
68439;SHT31;55421;51.600;5.718;2023-07-13T12:16:25;23.84;55.82
68439;SHT31;55421;51.600;5.718;2023-07-13T12:18:59;23.67;56.11
68439;SHT31;55421;51.600;5.718;2023-07-13T12:21:31;23.55;56.49
68439;SHT31;55421;51.600;5.718;2023-07-13T12:24:01;23.40;57.66
68439;SHT31;55421;51.600;5.718;2023-07-13T12:26:30;23.24;58.29
68439;SHT31;55421;51.600;5.718;2023-07-13T12:28:59;23.05;58.70
68439;SHT31;55421;51.600;5.718;2023-07-13T12:31:36;22.86;59.59
68439;SHT31;55421;51.600;5.718;2023-07-13T12:36:38;22.46;60.09
68439;SHT31;55421;51.600;5.718;2023-07-13T12:42:18;22.40;61.16
68439;SHT31;55421;51.600;5.718;2023-07-13T12:44:47;22.48;61.13
68439;SHT31;55421;51.600;5.718;2023-07-13T12:47:14;22.70;61.33
68439;SHT31;55421;51.600;5.718;2023-07-13T12:49:43;22.83;61.07
68439;SHT31;55421;51.600;5.718;2023-07-13T12:52:16;23.06;61.59
68439;SHT31;55421;51.600;5.718;2023-07-13T12:54:54;23.33;61.14
68439;SHT31;55421;51.600;5.718;2023-07-13T12:57:24;23.58;60.81
68439;SHT31;55421;51.600;5.718;2023-07-13T12:59:53;23.69;59.25
68439;SHT31;55421;51.600;5.718;2023-07-13T13:02:22;23.72;58.70
68439;SHT31;55421;51.600;5.718;2023-07-13T13:05:00;23.76;58.36
68439;SHT31;55421;51.600;5.718;2023-07-13T13:07:30;23.83;57.91
68439;SHT31;55421;51.600;5.718;2023-07-13T13:09:57;23.93;57.16
68439;SHT31;55421;51.600;5.718;2023-07-13T13:12:23;23.93;56.33
68439;SHT31;55421;51.600;5.718;2023-07-13T13:14:53;23.92;56.26
68439;SHT31;55421;51.600;5.718;2023-07-13T13:17:21;23.98;56.39
68439;SHT31;55421;51.600;5.718;2023-07-13T13:19:53;24.12;56.39
68439;SHT31;55421;51.600;5.718;2023-07-13T13:22:20;24.22;56.57
68439;SHT31;55421;51.600;5.718;2023-07-13T13:24:47;24.33;55.89
68439;SHT31;55421;51.600;5.718;2023-07-13T13:27:18;24.33;54.75
68439;SHT31;55421;51.600;5.718;2023-07-13T13:29:49;24.29;53.26
68439;SHT31;55421;51.600;5.718;2023-07-13T13:32:18;24.21;53.20
68439;SHT31;55421;51.600;5.718;2023-07-13T13:34:45;24.14;52.85
68439;SHT31;55421;51.600;5.718;2023-07-13T13:37:16;24.03;52.23
68439;SHT31;55421;51.600;5.718;2023-07-13T13:39:46;23.87;52.71
68439;SHT31;55421;51.600;5.718;2023-07-13T13:42:14;23.76;53.51
68439;SHT31;55421;51.600;5.718;2023-07-13T13:44:41;23.63;53.48
68439;SHT31;55421;51.600;5.718;2023-07-13T13:47:18;23.52;53.41
68439;SHT31;55421;51.600;5.718;2023-07-13T13:49:55;23.47;53.79
68439;SHT31;55421;51.600;5.718;2023-07-13T13:52:22;23.43;54.10
68439;SHT31;55421;51.600;5.718;2023-07-13T13:54:49;23.41;54.42
68439;SHT31;55421;51.600;5.718;2023-07-13T13:57:16;23.45;54.51
68439;SHT31;55421;51.600;5.718;2023-07-13T13:59:42;23.48;54.16
68439;SHT31;55421;51.600;5.718;2023-07-13T14:02:21;23.49;54.38
68439;SHT31;55421;51.600;5.718;2023-07-13T14:04:53;23.46;54.16
68439;SHT31;55421;51.600;5.718;2023-07-13T14:07:23;23.45;54.01
68439;SHT31;55421;51.600;5.718;2023-07-13T14:09:50;23.41;54.21
68439;SHT31;55421;51.600;5.718;2023-07-13T14:12:18;23.42;54.66
68439;SHT31;55421;51.600;5.718;2023-07-13T14:14:46;23.44;54.87
68439;SHT31;55421;51.600;5.718;2023-07-13T14:17:22;23.45;55.09
68439;SHT31;55421;51.600;5.718;2023-07-13T14:19:53;23.41;53.93
68439;SHT31;55421;51.600;5.718;2023-07-13T14:22:23;23.32;53.56
68439;SHT31;55421;51.600;5.718;2023-07-13T14:24:52;23.30;53.96
68439;SHT31;55421;51.600;5.718;2023-07-13T14:27:20;23.26;53.43
68439;SHT31;55421;51.600;5.718;2023-07-13T14:29:48;23.24;53.14
68439;SHT31;55421;51.600;5.718;2023-07-13T14:32:14;23.18;52.54
68439;SHT31;55421;51.600;5.718;2023-07-13T14:34:41;23.12;52.63
68439;SHT31;55421;51.600;5.718;2023-07-13T14:37:11;23.14;52.99
68439;SHT31;55421;51.600;5.718;2023-07-13T14:39:42;23.19;53.03
68439;SHT31;55421;51.600;5.718;2023-07-13T14:42:11;23.26;52.62
68439;SHT31;55421;51.600;5.718;2023-07-13T14:44:37;23.29;52.00
68439;SHT31;55421;51.600;5.718;2023-07-13T14:47:05;23.29;52.02
68439;SHT31;55421;51.600;5.718;2023-07-13T14:49:38;23.31;52.05
68439;SHT31;55421;51.600;5.718;2023-07-13T14:54:49;23.44;52.62
68439;SHT31;55421;51.600;5.718;2023-07-13T14:57:18;23.50;52.51
68439;SHT31;55421;51.600;5.718;2023-07-13T14:59:46;23.53;52.44
68439;SHT31;55421;51.600;5.718;2023-07-13T15:02:31;23.56;52.56
68439;SHT31;55421;51.600;5.718;2023-07-13T15:05:17;23.59;52.50
68439;SHT31;55421;51.600;5.718;2023-07-13T15:07:49;23.62;52.70
68439;SHT31;55421;51.600;5.718;2023-07-13T15:10:16;23.63;52.92
68439;SHT31;55421;51.600;5.718;2023-07-13T15:12:51;23.62;53.02
68439;SHT31;55421;51.600;5.718;2023-07-13T15:15:19;23.64;53.57
68439;SHT31;55421;51.600;5.718;2023-07-13T15:17:46;23.68;53.49
68439;SHT31;55421;51.600;5.718;2023-07-13T15:20:19;23.69;53.80
68439;SHT31;55421;51.600;5.718;2023-07-13T15:22:55;23.68;54.27
68439;SHT31;55421;51.600;5.718;2023-07-13T15:25:23;23.68;54.44
68439;SHT31;55421;51.600;5.718;2023-07-13T15:27:53;23.68;54.53
68439;SHT31;55421;51.600;5.718;2023-07-13T15:30:22;23.64;54.08
68439;SHT31;55421;51.600;5.718;2023-07-13T15:32:52;23.55;54.26
68439;SHT31;55421;51.600;5.718;2023-07-13T15:35:19;23.52;54.60
68439;SHT31;55421;51.600;5.718;2023-07-13T15:37:52;23.48;54.63
68439;SHT31;55421;51.600;5.718;2023-07-13T15:40:19;23.44;54.65
68439;SHT31;55421;51.600;5.718;2023-07-13T15:42:48;23.37;54.73
68439;SHT31;55421;51.600;5.718;2023-07-13T15:45:15;23.31;54.91
68439;SHT31;55421;51.600;5.718;2023-07-13T15:47:48;23.28;55.08
68439;SHT31;55421;51.600;5.718;2023-07-13T15:50:17;23.27;55.30
68439;SHT31;55421;51.600;5.718;2023-07-13T15:52:48;23.25;55.48
68439;SHT31;55421;51.600;5.718;2023-07-13T15:55:18;23.24;55.60
68439;SHT31;55421;51.600;5.718;2023-07-13T15:57:50;23.25;55.47
68439;SHT31;55421;51.600;5.718;2023-07-13T16:00:20;23.25;55.51
68439;SHT31;55421;51.600;5.718;2023-07-13T16:02:50;23.28;55.92
68439;SHT31;55421;51.600;5.718;2023-07-13T16:05:18;23.39;56.08
68439;SHT31;55421;51.600;5.718;2023-07-13T16:07:48;23.46;55.65
68439;SHT31;55421;51.600;5.718;2023-07-13T16:10:22;23.51;55.50
68439;SHT31;55421;51.600;5.718;2023-07-13T16:12:56;23.54;55.36
68439;SHT31;55421;51.600;5.718;2023-07-13T16:15:23;23.55;55.29
68439;SHT31;55421;51.600;5.718;2023-07-13T16:17:49;23.57;55.34
68439;SHT31;55421;51.600;5.718;2023-07-13T16:20:17;23.55;55.53
68439;SHT31;55421;51.600;5.718;2023-07-13T16:22:47;23.51;55.80
68439;SHT31;55421;51.600;5.718;2023-07-13T16:25:22;23.44;55.70
68439;SHT31;55421;51.600;5.718;2023-07-13T16:27:52;23.42;55.78
68439;SHT31;55421;51.600;5.718;2023-07-13T16:30:26;23.43;55.94
68439;SHT31;55421;51.600;5.718;2023-07-13T16:32:58;23.39;55.85
68439;SHT31;55421;51.600;5.718;2023-07-13T16:35:33;23.35;56.10